createdAt,value
2023-04-13T00:00:08.864Z,9.711785
2023-04-13T00:01:08.849Z,9.711776
2023-04-13T00:02:08.970Z,9.711710
2023-04-13T00:03:09.030Z,9.711647
2023-04-13T00:04:08.885Z,9.711632
2023-04-13T00:05:08.849Z,9.711641
2023-04-13T00:06:08.828Z,9.711672
2023-04-13T00:07:08.804Z,9.711668
2023-04-13T00:08:08.799Z,9.711616
2023-04-13T00:09:08.804Z,9.711636
2023-04-13T00:10:08.790Z,9.711635
2023-04-13T00:11:08.780Z,9.711630
2023-04-13T00:12:08.777Z,9.711625
2023-04-13T00:13:08.773Z,9.711628
2023-04-13T00:14:08.767Z,9.711680
2023-04-13T00:15:08.762Z,9.711684
2023-04-13T00:16:08.759Z,9.711647
2023-04-13T00:17:08.859Z,9.711675
2023-04-13T00:18:08.721Z,9.711674
2023-04-13T00:19:08.717Z,9.711652
2023-04-13T00:20:08.709Z,9.711669
2023-04-13T00:21:08.706Z,9.711635
2023-04-13T00:27:09.167Z,9.712251
2023-04-13T00:28:10.173Z,9.712097
2023-04-13T00:29:09.158Z,9.711496
2023-04-13T00:30:09.131Z,9.711473
2023-04-13T00:31:09.205Z,9.712041
2023-04-13T00:32:09.129Z,9.712491
2023-04-13T00:33:09.197Z,9.712875
2023-04-13T00:34:09.160Z,9.712970
2023-04-13T00:35:09.155Z,9.712942
2023-04-13T00:36:09.111Z,9.712504
2023-04-13T00:37:09.079Z,9.712662
2023-04-13T00:38:09.081Z,9.712784
2023-04-13T00:39:09.091Z,9.711871
2023-04-13T00:40:09.064Z,9.711876
2023-04-13T00:41:09.047Z,9.711821
2023-04-13T00:42:09.104Z,9.711698
2023-04-13T00:43:09.047Z,9.711823
2023-04-13T00:44:09.067Z,9.711767
2023-04-13T00:45:09.016Z,9.711646
2023-04-13T00:46:09.134Z,9.711780
2023-04-13T00:47:08.996Z,9.711782
2023-04-13T00:48:08.997Z,9.711723
2023-04-13T00:49:08.995Z,9.711727
2023-04-13T00:50:08.989Z,9.711596
2023-04-13T00:51:08.984Z,9.711449
2023-04-13T00:52:08.985Z,9.711410
2023-04-13T00:53:10.879Z,9.711462
2023-04-13T00:54:09.949Z,9.711488
2023-04-13T00:55:08.950Z,9.711467
2023-04-13T00:56:08.940Z,9.711526
2023-04-13T00:57:08.925Z,9.711497
2023-04-13T00:58:08.926Z,9.711614
2023-04-13T00:59:08.904Z,9.711526
2023-04-13T01:00:08.903Z,9.711641
2023-04-13T01:01:08.918Z,9.711602
2023-04-13T01:02:08.981Z,9.711589
2023-04-13T01:03:08.949Z,9.711564
2023-04-13T01:04:08.880Z,9.711598
2023-04-13T01:05:08.870Z,9.711659
2023-04-13T01:06:08.848Z,9.711597
2023-04-13T01:07:08.858Z,9.711586
2023-04-13T01:08:08.861Z,9.711651
2023-04-13T01:09:08.817Z,9.711586
2023-04-13T01:10:08.824Z,9.711573
2023-04-13T01:11:08.801Z,9.711544
2023-04-13T01:12:08.814Z,9.711621
2023-04-13T01:13:09.586Z,9.711565
2023-04-13T01:14:08.851Z,9.711617
2023-04-13T01:15:08.774Z,9.711551
2023-04-13T01:16:09.785Z,9.711638
2023-04-13T01:17:08.767Z,9.711612
2023-04-13T01:18:08.745Z,9.711645
2023-04-13T01:19:08.751Z,9.711638
2023-04-13T01:20:08.729Z,9.711631
2023-04-13T01:21:08.716Z,9.711611
2023-04-13T01:22:08.707Z,9.711570
2023-04-13T01:23:08.716Z,9.711561
2023-04-13T01:24:08.711Z,9.711554
2023-04-13T01:25:08.697Z,9.711551
2023-04-13T01:26:08.711Z,9.711512
2023-04-13T01:27:08.704Z,9.711504
2023-04-13T01:28:08.681Z,9.711498
2023-04-13T01:29:08.693Z,9.711506
2023-04-13T01:30:08.669Z,9.711497
2023-04-13T01:31:08.666Z,9.711523
2023-04-13T01:32:08.638Z,9.711542
2023-04-13T01:33:08.686Z,9.711509
2023-04-13T01:34:08.621Z,9.711527
2023-04-13T01:35:08.654Z,9.711533
2023-04-13T01:36:08.599Z,9.711541
2023-04-13T01:37:08.601Z,9.711618
2023-04-13T01:38:08.623Z,9.711560
2023-04-13T01:39:08.581Z,9.711551
2023-04-13T01:40:08.590Z,9.711586
2023-04-13T01:41:08.595Z,9.711625
2023-04-13T01:42:08.568Z,9.711573
2023-04-13T01:43:08.577Z,9.711604
2023-04-13T01:44:08.524Z,9.711575
2023-04-13T01:45:08.552Z,9.711493
2023-04-13T01:46:08.590Z,9.711584
2023-04-13T01:47:08.521Z,9.711625
2023-04-13T01:48:08.526Z,9.711525
2023-04-13T01:49:08.506Z,9.711609
2023-04-13T01:50:08.485Z,9.711728
2023-04-13T01:51:08.478Z,9.711635
2023-04-13T01:52:08.474Z,9.711580
2023-04-13T01:53:08.464Z,9.711505
2023-04-13T01:54:08.463Z,9.711577
2023-04-13T01:55:08.442Z,9.711582
2023-04-13T01:56:08.447Z,9.711564
2023-04-13T01:57:08.450Z,9.711708
2023-04-13T01:58:08.448Z,9.711675
2023-04-13T01:59:08.450Z,9.711649
2023-04-13T02:00:08.399Z,9.711752
2023-04-13T02:01:08.442Z,9.711760
2023-04-13T02:02:08.504Z,9.711699
2023-04-13T02:03:08.445Z,9.711567
2023-04-13T02:04:08.529Z,9.711374
2023-04-13T02:05:08.374Z,9.711506
2023-04-13T02:06:08.353Z,9.711424
2023-04-13T02:07:08.364Z,9.711547
2023-04-13T02:08:08.343Z,9.711629
2023-04-13T02:09:08.348Z,9.711694
2023-04-13T02:10:08.326Z,9.711710
2023-04-13T02:11:08.329Z,9.711633
2023-04-13T02:12:08.317Z,9.711675
2023-04-13T02:13:08.307Z,9.711635
2023-04-13T02:14:08.309Z,9.711702
2023-04-13T02:15:09.047Z,9.711669
2023-04-13T02:16:08.313Z,9.711678
2023-04-13T02:17:08.276Z,9.711659
2023-04-13T02:18:08.273Z,9.711638
2023-04-13T02:19:08.258Z,9.711626
2023-04-13T02:20:08.257Z,9.711668
2023-04-13T02:21:08.245Z,9.711702
2023-04-13T02:22:08.226Z,9.711724
2023-04-13T02:23:08.256Z,9.711721
2023-04-13T02:24:08.216Z,9.711680
2023-04-13T02:25:08.216Z,9.711665
2023-04-13T02:26:08.214Z,9.711622
2023-04-13T02:27:08.199Z,9.711632
2023-04-13T02:28:08.206Z,9.711624
2023-04-13T02:29:08.298Z,9.711665
2023-04-13T02:30:08.178Z,9.711627
2023-04-13T02:31:08.179Z,9.711620
2023-04-13T02:32:08.266Z,9.711638
2023-04-13T02:33:08.149Z,9.711667
2023-04-13T02:34:09.075Z,9.711681
2023-04-13T02:35:08.122Z,9.711666
2023-04-13T02:39:15.822Z,9.711735
2023-04-13T02:40:15.766Z,9.711788
2023-04-13T02:41:15.776Z,9.711823
2023-04-13T02:42:15.751Z,9.712139
2023-04-13T02:43:15.754Z,9.711940
2023-04-13T02:44:15.769Z,9.711731
2023-04-13T02:45:15.739Z,9.711693
2023-04-13T02:46:15.746Z,9.711653
2023-04-13T02:47:15.727Z,9.711731
2023-04-13T02:48:15.714Z,9.711645
2023-04-13T02:49:15.692Z,9.711692
2023-04-13T02:50:16.697Z,9.711618
2023-04-13T02:51:15.702Z,9.711632
2023-04-13T02:52:15.701Z,9.711712
2023-04-13T02:53:15.662Z,9.711637
2023-04-13T02:54:15.642Z,9.711660
2023-04-13T02:55:15.648Z,9.711570
2023-04-13T02:56:15.626Z,9.711596
2023-04-13T02:57:15.634Z,9.711761
2023-04-13T02:58:15.599Z,9.711721
2023-04-13T02:59:15.594Z,9.711618
2023-04-13T03:00:15.599Z,9.711530
2023-04-13T03:01:15.602Z,9.711633
2023-04-13T03:02:15.639Z,9.711523
2023-04-13T03:03:15.643Z,9.711485
2023-04-13T03:04:15.586Z,9.711488
2023-04-13T03:05:15.566Z,9.711606
2023-04-13T03:06:15.537Z,9.711590
2023-04-13T03:07:15.543Z,9.711293
2023-04-13T03:08:15.534Z,9.711507
2023-04-13T03:09:15.554Z,9.711454
2023-04-13T03:10:15.523Z,9.711637
2023-04-13T03:11:15.518Z,9.711645
2023-04-13T03:12:15.497Z,9.711441
2023-04-13T03:13:15.504Z,9.711568
2023-04-13T03:14:15.490Z,9.711149
2023-04-13T03:15:15.469Z,9.711372
2023-04-13T03:16:15.518Z,9.711432
2023-04-13T03:17:16.708Z,9.711017
2023-04-13T03:18:15.455Z,9.711017
2023-04-13T03:19:16.472Z,9.710784
2023-04-13T03:20:15.451Z,9.711553
2023-04-13T03:21:15.427Z,9.711619
2023-04-13T03:22:15.431Z,9.711646
2023-04-13T03:23:15.418Z,9.711613
2023-04-13T03:24:15.410Z,9.711630
2023-04-13T03:25:15.399Z,9.711615
2023-04-13T03:26:15.385Z,9.711612
2023-04-13T03:27:15.385Z,9.711594
2023-04-13T03:28:15.397Z,9.711602
2023-04-13T03:29:15.445Z,9.711605
2023-04-13T03:30:15.363Z,9.711632
2023-04-13T03:31:15.377Z,9.711610
2023-04-13T03:32:15.351Z,9.711596
2023-04-13T03:33:15.329Z,9.711635
2023-04-13T03:34:15.335Z,9.711642
2023-04-13T03:35:15.313Z,9.711658
2023-04-13T03:36:15.315Z,9.711700
2023-04-13T03:37:15.312Z,9.711677
2023-04-13T03:38:15.295Z,9.711670
2023-04-13T03:39:15.293Z,9.711662
2023-04-13T03:40:15.274Z,9.711667
2023-04-13T03:41:15.269Z,9.711645
2023-04-13T03:42:15.282Z,9.711614
2023-04-13T03:43:15.263Z,9.711657
2023-04-13T03:44:15.270Z,9.711617
2023-04-13T03:45:15.238Z,9.711699
2023-04-13T03:46:15.274Z,9.711695
2023-04-13T03:47:15.233Z,9.711726
2023-04-13T03:48:15.217Z,9.711677
2023-04-13T03:49:15.221Z,9.711725
2023-04-13T03:50:15.223Z,9.711743
2023-04-13T03:51:15.205Z,9.711729
2023-04-13T03:52:15.193Z,9.711704
2023-04-13T03:53:15.189Z,9.711654
2023-04-13T03:54:15.174Z,9.711677
2023-04-13T03:55:15.191Z,9.711755
2023-04-13T03:56:15.160Z,9.711707
2023-04-13T03:57:15.148Z,9.711729
2023-04-13T03:58:15.158Z,9.711661
2023-04-13T03:59:15.126Z,9.711655
2023-04-13T04:00:15.122Z,9.711783
2023-04-13T04:01:15.120Z,9.711829
2023-04-13T04:02:15.185Z,9.711750
2023-04-13T04:03:15.155Z,9.711686
2023-04-13T04:04:15.110Z,9.711589
2023-04-13T04:05:15.098Z,9.711550
2023-04-13T04:06:15.077Z,9.711625
2023-04-13T04:07:15.065Z,9.711807
2023-04-13T04:08:15.065Z,9.711549
2023-04-13T04:09:15.051Z,9.711687
2023-04-13T04:10:15.063Z,9.711706
2023-04-13T04:11:15.050Z,9.711725
2023-04-13T04:12:15.023Z,9.711677
2023-04-13T04:13:15.821Z,9.711594
2023-04-13T04:14:15.015Z,9.711619
2023-04-13T04:15:15.017Z,9.711889
2023-04-13T04:16:15.033Z,9.711965
2023-04-13T04:17:14.986Z,9.711788
2023-04-13T04:18:15.145Z,9.711748
2023-04-13T04:19:14.980Z,9.711603
2023-04-13T04:20:14.967Z,9.711769
2023-04-13T04:21:14.961Z,9.711760
2023-04-13T04:22:14.941Z,9.711658
2023-04-13T04:23:14.933Z,9.711604
2023-04-13T04:24:14.933Z,9.711800
2023-04-13T04:25:14.935Z,9.712011
2023-04-13T04:26:14.905Z,9.711784
2023-04-13T04:27:14.937Z,9.711875
2023-04-13T04:28:14.891Z,9.712001
2023-04-13T04:29:14.878Z,9.711938
2023-04-13T04:30:14.889Z,9.712130
2023-04-13T04:31:14.899Z,9.711962
2023-04-13T04:32:14.928Z,9.711853
2023-04-13T04:33:14.854Z,9.711799
2023-04-13T04:34:14.887Z,9.711866
2023-04-13T04:35:14.843Z,9.711826
2023-04-13T04:36:14.823Z,9.711897
2023-04-13T04:37:20.717Z,9.711513
2023-04-13T04:38:16.818Z,9.711495
2023-04-13T04:39:14.849Z,9.711675
2023-04-13T04:40:14.828Z,9.711851
2023-04-13T04:41:16.332Z,9.711654
2023-04-13T04:42:14.784Z,9.711759
2023-04-13T04:43:14.782Z,9.711894
2023-04-13T04:44:14.778Z,9.711986
2023-04-13T04:45:14.755Z,9.711702
2023-04-13T04:46:15.877Z,9.711596
2023-04-13T04:47:15.752Z,9.711567
2023-04-13T04:48:14.759Z,9.711552
2023-04-13T04:49:14.731Z,9.711537
2023-04-13T04:50:14.741Z,9.711537
2023-04-13T04:51:14.731Z,9.711581
2023-04-13T04:52:14.714Z,9.711567
2023-04-13T04:53:14.701Z,9.711578
2023-04-13T04:54:14.785Z,9.711556
2023-04-13T04:55:14.687Z,9.711514
2023-04-13T04:56:14.682Z,9.711548
2023-04-13T04:57:14.748Z,9.711576
2023-04-13T04:58:14.654Z,9.711542
2023-04-13T04:59:14.675Z,9.711539
2023-04-13T05:00:14.647Z,9.711521
2023-04-13T05:01:14.709Z,9.711504
2023-04-13T05:02:14.670Z,9.711549
2023-04-13T05:03:14.728Z,9.711517
2023-04-13T05:04:14.615Z,9.711510
2023-04-13T05:05:14.673Z,9.711567
2023-04-13T05:06:14.601Z,9.711584
2023-04-13T05:07:14.601Z,9.711562
2023-04-13T05:08:14.597Z,9.711629
2023-04-13T05:09:16.343Z,9.711557
2023-04-13T05:10:14.582Z,9.711538
2023-04-13T05:11:14.561Z,9.711510
2023-04-13T05:12:14.561Z,9.711556
2023-04-13T05:13:14.560Z,9.711600
2023-04-13T05:14:14.559Z,9.711563
2023-04-13T05:15:14.517Z,9.711623
2023-04-13T05:16:14.585Z,9.711592
2023-04-13T05:17:14.517Z,9.711571
2023-04-13T05:18:14.532Z,9.711627
2023-04-13T05:19:14.501Z,9.711573
2023-04-13T05:20:14.491Z,9.711638
2023-04-13T05:21:14.479Z,9.711587
2023-04-13T05:22:14.478Z,9.711638
2023-04-13T05:23:14.468Z,9.711636
2023-04-13T05:24:14.458Z,9.711610
2023-04-13T05:25:14.447Z,9.711568
2023-04-13T05:26:14.447Z,9.711627
2023-04-13T05:27:14.429Z,9.711605
2023-04-13T05:28:14.437Z,9.711571
2023-04-13T05:29:14.456Z,9.711697
2023-04-13T05:30:14.414Z,9.711701
2023-04-13T05:31:14.990Z,9.711551
2023-04-13T05:32:14.416Z,9.711577
2023-04-13T05:33:14.389Z,9.711638
2023-04-13T05:34:14.410Z,9.711634
2023-04-13T05:35:14.386Z,9.711714
2023-04-13T05:36:14.363Z,9.711743
2023-04-13T05:37:14.368Z,9.711717
2023-04-13T05:38:14.340Z,9.711637
2023-04-13T05:39:14.378Z,9.711704
2023-04-13T05:40:14.332Z,9.711503
2023-04-13T05:41:14.328Z,9.711542
2023-04-13T05:42:14.321Z,9.711845
2023-04-13T05:43:14.306Z,9.711581
2023-04-13T05:44:14.330Z,9.711728
2023-04-13T05:45:14.316Z,9.711603
2023-04-13T05:46:14.354Z,9.711563
2023-04-13T05:47:14.280Z,9.711628
2023-04-13T05:48:14.803Z,9.711569
2023-04-13T05:49:14.260Z,9.711702
2023-04-13T05:50:14.270Z,9.711624
2023-04-13T05:51:14.245Z,9.711644
2023-04-13T05:52:14.242Z,9.711644
2023-04-13T05:53:14.231Z,9.711591
2023-04-13T05:54:14.235Z,9.711675
2023-04-13T05:55:14.226Z,9.711701
2023-04-13T05:56:14.220Z,9.711582
2023-04-13T05:57:14.204Z,9.711585
2023-04-13T05:58:14.200Z,9.711625
2023-04-13T05:59:14.201Z,9.711531
2023-04-13T06:00:14.923Z,9.711587
2023-04-13T06:01:14.180Z,9.711642
2023-04-13T06:02:14.321Z,9.711666
2023-04-13T06:03:14.423Z,9.711643
2023-04-13T06:04:14.386Z,9.711576
2023-04-13T06:05:14.168Z,9.711545
2023-04-13T06:06:14.122Z,9.711604
2023-04-13T06:07:14.140Z,9.711740
2023-04-13T06:08:14.116Z,9.711625
2023-04-13T06:09:14.128Z,9.711629
2023-04-13T06:10:14.108Z,9.711646
2023-04-13T06:11:14.097Z,9.711614
2023-04-13T06:12:14.093Z,9.711601
2023-04-13T06:13:14.076Z,9.711604
2023-04-13T06:14:14.064Z,9.711597
2023-04-13T06:15:14.061Z,9.711582
2023-04-13T06:16:14.072Z,9.711564
2023-04-13T06:17:14.055Z,9.711615
2023-04-13T06:18:14.028Z,9.711641
2023-04-13T06:19:14.037Z,9.711692
2023-04-13T06:20:14.023Z,9.711666
2023-04-13T06:21:14.018Z,9.711657
2023-04-13T06:22:14.003Z,9.711679
2023-04-13T06:23:13.995Z,9.711674
2023-04-13T06:24:14.007Z,9.711618
2023-04-13T06:25:13.970Z,9.711650
2023-04-13T06:26:13.951Z,9.711681
2023-04-13T06:27:13.986Z,9.711686
2023-04-13T06:28:13.936Z,9.711780
2023-04-13T06:29:13.992Z,9.711795
2023-04-13T06:30:13.959Z,9.711771
2023-04-13T06:31:14.957Z,9.711813
2023-04-13T06:32:13.944Z,9.711857
2023-04-13T06:33:14.862Z,9.711850
2023-04-13T06:34:13.945Z,9.711883
2023-04-13T06:35:13.906Z,9.711910
2023-04-13T06:36:13.977Z,9.711862
2023-04-13T06:37:13.901Z,9.711790
2023-04-13T06:38:14.961Z,9.711716
2023-04-13T06:39:13.873Z,9.711705
2023-04-13T06:40:13.876Z,9.711946
2023-04-13T06:41:14.452Z,9.711706
2023-04-13T06:42:13.892Z,9.712072
2023-04-13T06:43:26.283Z,9.711843
2023-04-13T06:44:15.856Z,9.711906
2023-04-13T06:45:13.850Z,9.711914
2023-04-13T06:46:13.858Z,9.711706
2023-04-13T06:47:13.796Z,9.711615
2023-04-13T06:48:13.805Z,9.711932
2023-04-13T06:49:13.801Z,9.712066
2023-04-13T06:50:13.867Z,9.711666
2023-04-13T06:51:13.794Z,9.711985
2023-04-13T06:52:13.770Z,9.712029
2023-04-13T06:53:13.767Z,9.712043
2023-04-13T06:54:13.771Z,9.711877
2023-04-13T06:55:13.748Z,9.711639
2023-04-13T06:56:14.493Z,9.711787
2023-04-13T06:57:14.369Z,9.711650
2023-04-13T06:58:13.738Z,9.711708
2023-04-13T06:59:13.699Z,9.711774
2023-04-13T07:00:28.917Z,9.711909
2023-04-13T07:01:15.875Z,9.711645
2023-04-13T07:02:14.881Z,9.711630
2023-04-13T07:03:13.883Z,9.711761
2023-04-13T07:04:13.806Z,9.711857
2023-04-13T07:05:13.768Z,9.712055
2023-04-13T07:06:13.669Z,9.711802
2023-04-13T07:07:13.653Z,9.711756
2023-04-13T07:08:14.883Z,9.711774
2023-04-13T07:09:13.934Z,9.711749
2023-04-13T07:10:13.618Z,9.711866
2023-04-13T07:11:14.389Z,9.711890
2023-04-13T07:12:13.608Z,9.711886
2023-04-13T07:13:13.612Z,9.711795
2023-04-13T07:14:13.601Z,9.711651
2023-04-13T07:15:13.584Z,9.711679
2023-04-13T07:16:15.524Z,9.711821
2023-04-13T07:17:13.610Z,9.711987
2023-04-13T07:18:13.561Z,9.711781
2023-04-13T07:19:14.468Z,9.711710
2023-04-13T07:20:13.560Z,9.711494
2023-04-13T07:21:16.770Z,9.711442
2023-04-13T07:22:13.542Z,9.711494
2023-04-13T07:23:13.547Z,9.711688
2023-04-13T07:24:15.470Z,9.711710
2023-04-13T07:25:13.513Z,9.711967
2023-04-13T07:26:13.497Z,9.711923
2023-04-13T07:27:14.512Z,9.711815
2023-04-13T07:28:13.491Z,9.711585
2023-04-13T07:29:15.461Z,9.711639
2023-04-13T07:30:13.478Z,9.711446
2023-04-13T07:31:13.549Z,9.711684
2023-04-13T07:32:13.477Z,9.712271
2023-04-13T07:33:13.529Z,9.712607
2023-04-13T07:34:13.446Z,9.712434
2023-04-13T07:35:13.453Z,9.712071
2023-04-13T07:36:13.425Z,9.711776
2023-04-13T07:37:14.394Z,9.711808
2023-04-13T07:38:13.418Z,9.711905
2023-04-13T07:39:13.428Z,9.711946
2023-04-13T07:40:13.404Z,9.711947
2023-04-13T07:41:13.378Z,9.712278
2023-04-13T07:42:13.369Z,9.712304
2023-04-13T07:43:14.026Z,9.712319
2023-04-13T07:44:13.357Z,9.712405
2023-04-13T07:45:13.388Z,9.712273
2023-04-13T07:46:13.411Z,9.712409
2023-04-13T07:47:16.900Z,9.712330
2023-04-13T07:48:13.326Z,9.712274
2023-04-13T07:49:13.306Z,9.712131
2023-04-13T07:50:13.302Z,9.711934
2023-04-13T07:51:13.287Z,9.711840
2023-04-13T07:52:13.303Z,9.711911
2023-04-13T07:53:13.294Z,9.711805
2023-04-13T07:54:15.878Z,9.712079
2023-04-13T07:55:13.252Z,9.712052
2023-04-13T07:56:13.263Z,9.711812
2023-04-13T08:05:21.782Z,9.711190
2023-04-13T08:06:21.656Z,9.711145
2023-04-13T08:07:21.474Z,9.711604
2023-04-13T08:08:21.804Z,9.711575
2023-04-13T08:09:21.464Z,9.711315
2023-04-13T08:10:23.063Z,9.711217
2023-04-13T08:11:21.512Z,9.711677
2023-04-13T08:12:21.448Z,9.711757
2023-04-13T08:13:21.414Z,9.711714
2023-04-13T08:14:21.420Z,9.711657
2023-04-13T08:15:21.409Z,9.711691
2023-04-13T08:16:21.434Z,9.711689
2023-04-13T08:17:21.454Z,9.711653
2023-04-13T08:18:21.373Z,9.711654
2023-04-13T08:19:21.381Z,9.711684
2023-04-13T08:20:21.366Z,9.711728
2023-04-13T08:21:23.065Z,9.711730
2023-04-13T08:22:21.352Z,9.711741
2023-04-13T08:23:21.358Z,9.711770
2023-04-13T08:24:21.336Z,9.711775
2023-04-13T08:25:21.347Z,9.711701
2023-04-13T08:26:21.349Z,9.711700
2023-04-13T08:27:21.326Z,9.711662
2023-04-13T08:28:21.312Z,9.711753
2023-04-13T08:29:21.294Z,9.711789
2023-04-13T08:30:22.019Z,9.711766
2023-04-13T08:31:21.346Z,9.711857
2023-04-13T08:32:22.012Z,9.711749
2023-04-13T08:33:21.343Z,9.711695
2023-04-13T08:34:21.245Z,9.711613
2023-04-13T08:35:21.259Z,9.711620
2023-04-13T08:36:21.244Z,9.711485
2023-04-13T08:37:21.302Z,9.711671
2023-04-13T08:38:21.229Z,9.711746
2023-04-13T08:39:21.206Z,9.711830
2023-04-13T08:40:21.271Z,9.711652
2023-04-13T08:41:21.184Z,9.711663
2023-04-13T08:42:21.635Z,9.711552
2023-04-13T08:43:21.201Z,9.711720
2023-04-13T08:44:21.195Z,9.711756
2023-04-13T08:45:21.165Z,9.711584
2023-04-13T08:46:21.507Z,9.711727
2023-04-13T08:47:21.153Z,9.711841
2023-04-13T08:48:21.127Z,9.711677
2023-04-13T08:49:21.145Z,9.711681
2023-04-13T08:50:21.205Z,9.711787
2023-04-13T08:51:21.108Z,9.711821
2023-04-13T08:52:21.095Z,9.711703
2023-04-13T08:53:21.114Z,9.711458
2023-04-13T08:54:23.082Z,9.711433
2023-04-13T08:55:23.069Z,9.711689
2023-04-13T08:56:26.190Z,9.711724
2023-04-13T08:57:23.058Z,9.711720
2023-04-13T08:58:21.126Z,9.711776
2023-04-13T08:59:21.118Z,9.711843
2023-04-13T09:00:22.054Z,9.711734
2023-04-13T09:01:21.054Z,9.711685
2023-04-13T09:02:21.070Z,9.711729
2023-04-13T09:03:21.186Z,9.711682
2023-04-13T09:04:21.267Z,9.711750
2023-04-13T09:05:21.203Z,9.711749
2023-04-13T09:06:21.529Z,9.711793
2023-04-13T09:07:20.987Z,9.711816
2023-04-13T09:08:22.632Z,9.711599
2023-04-13T09:09:23.600Z,9.711491
2023-04-13T09:10:20.983Z,9.711466
2023-04-13T09:11:20.944Z,9.711660
2023-04-13T09:12:21.004Z,9.711772
2023-04-13T09:13:20.930Z,9.711776
2023-04-13T09:14:20.919Z,9.711767
2023-04-13T09:15:20.938Z,9.711768
2023-04-13T09:16:20.912Z,9.711788
2023-04-13T09:17:20.951Z,9.711773
2023-04-13T09:18:20.938Z,9.711740
2023-04-13T09:19:20.868Z,9.711804
2023-04-13T09:20:22.559Z,9.711864
2023-04-13T09:21:20.850Z,9.711849
2023-04-13T09:22:20.887Z,9.711824
2023-04-13T09:23:22.604Z,9.711761
2023-04-13T09:24:20.914Z,9.711851
2023-04-13T09:25:20.867Z,9.711772
2023-04-13T09:26:22.607Z,9.711740
2023-04-13T09:27:20.848Z,9.711792
2023-04-13T09:28:20.813Z,9.711786
2023-04-13T09:29:20.821Z,9.711740
2023-04-13T09:30:20.792Z,9.711828
2023-04-13T09:31:20.806Z,9.711865
2023-04-13T09:32:20.798Z,9.711946
2023-04-13T09:33:20.778Z,9.711902
2023-04-13T09:34:20.762Z,9.711862
2023-04-13T09:35:20.843Z,9.711876
2023-04-13T09:36:21.615Z,9.711927
2023-04-13T09:37:20.766Z,9.711850
2023-04-13T09:38:20.730Z,9.711796
2023-04-13T09:39:20.719Z,9.711840
2023-04-13T09:40:20.782Z,9.711757
2023-04-13T09:41:20.801Z,9.711843
2023-04-13T09:42:20.696Z,9.711833
2023-04-13T09:43:20.691Z,9.711852
2023-04-13T09:44:22.631Z,9.711823
2023-04-13T09:45:20.696Z,9.711829
2023-04-13T09:46:22.036Z,9.711835
2023-04-13T09:47:20.669Z,9.711820
2023-04-13T09:48:20.885Z,9.711777
2023-04-13T09:49:20.666Z,9.711772
2023-04-13T09:50:20.649Z,9.711806
2023-04-13T09:51:20.640Z,9.711801
2023-04-13T09:52:23.769Z,9.711837
2023-04-13T09:53:20.658Z,9.711804
2023-04-13T09:54:22.580Z,9.711825
2023-04-13T09:55:20.615Z,9.711883
2023-04-13T09:56:21.508Z,9.711930
2023-04-13T09:57:20.566Z,9.711883
2023-04-13T09:58:20.554Z,9.711865
2023-04-13T09:59:20.573Z,9.711636
2023-04-13T10:00:20.862Z,9.711625
2023-04-13T10:01:22.624Z,9.711579
2023-04-13T10:02:21.651Z,9.711780
2023-04-13T10:03:20.664Z,9.711604
2023-04-13T10:04:20.596Z,9.711505
2023-04-13T10:05:25.679Z,9.711548
2023-04-13T10:06:20.579Z,9.711553
2023-04-13T10:07:20.540Z,9.711534
2023-04-13T10:08:27.327Z,9.711431
2023-04-13T10:09:22.468Z,9.711428
2023-04-13T10:10:21.023Z,9.711360
2023-04-13T10:14:28.496Z,9.711767
2023-04-13T10:15:30.302Z,9.711576
2023-04-13T10:16:28.545Z,9.711941
2023-04-13T10:17:28.610Z,9.711975
2023-04-13T10:18:28.638Z,9.711899
2023-04-13T10:19:28.501Z,9.711564
2023-04-13T10:20:28.481Z,9.711489
2023-04-13T10:21:28.562Z,9.711610
2023-04-13T10:22:28.450Z,9.711598
2023-04-13T10:23:30.371Z,9.711720
2023-04-13T10:24:28.439Z,9.711850
2023-04-13T10:25:33.454Z,9.711872
2023-04-13T10:26:30.405Z,9.711892
2023-04-13T10:27:28.424Z,9.711912
2023-04-13T10:28:28.410Z,9.711968
2023-04-13T10:29:28.413Z,9.712049
2023-04-13T10:30:28.439Z,9.712037
2023-04-13T10:31:28.418Z,9.712120
2023-04-13T10:32:30.331Z,9.712145
2023-04-13T10:33:28.380Z,9.711866
2023-04-13T10:34:28.376Z,9.711905
2023-04-13T10:35:28.336Z,9.711913
2023-04-13T10:36:28.344Z,9.711643
2023-04-13T10:37:28.327Z,9.711402
2023-04-13T10:38:28.342Z,9.711284
2023-04-13T10:39:28.337Z,9.711481
2023-04-13T10:40:28.318Z,9.711805
2023-04-13T10:41:28.296Z,9.712336
2023-04-13T10:42:28.288Z,9.712716
2023-04-13T10:43:28.258Z,9.712390
2023-04-13T10:44:28.271Z,9.712271
2023-04-13T10:45:30.222Z,9.711717
2023-04-13T10:46:28.261Z,9.711789
2023-04-13T10:47:28.930Z,9.711561
2023-04-13T10:48:28.257Z,9.711571
2023-04-13T10:49:29.841Z,9.711695
2023-04-13T10:50:28.208Z,9.711618
2023-04-13T10:51:28.215Z,9.711327
2023-04-13T10:52:28.219Z,9.711396
2023-04-13T10:53:29.757Z,9.711457
2023-04-13T10:54:29.820Z,9.711572
2023-04-13T10:55:28.166Z,9.711527
2023-04-13T10:56:28.147Z,9.711403
2023-04-13T10:57:28.215Z,9.711371
2023-04-13T10:58:28.905Z,9.711273
2023-04-13T10:59:28.165Z,9.711304
2023-04-13T11:00:42.412Z,9.711412
2023-04-13T11:01:30.296Z,9.711656
2023-04-13T11:02:28.219Z,9.711709
2023-04-13T11:03:28.192Z,9.711719
2023-04-13T11:04:28.132Z,9.711690
2023-04-13T11:05:28.100Z,9.711713
2023-04-13T11:06:28.720Z,9.711738
2023-04-13T11:07:28.058Z,9.711740
2023-04-13T11:08:28.410Z,9.711710
2023-04-13T11:09:28.101Z,9.711725
2023-04-13T11:10:28.031Z,9.711739
2023-04-13T11:11:28.037Z,9.711698
2023-04-13T11:12:31.731Z,9.711685
2023-04-13T11:13:28.049Z,9.711654
2023-04-13T11:14:29.824Z,9.711648
2023-04-13T11:15:28.038Z,9.711687
2023-04-13T11:16:30.857Z,9.711648
2023-04-13T11:17:28.256Z,9.711607
2023-04-13T11:18:27.985Z,9.711615
2023-04-13T11:19:27.967Z,9.711584
2023-04-13T11:20:29.755Z,9.711600
2023-04-13T11:21:27.948Z,9.711601
2023-04-13T11:22:28.870Z,9.711581
2023-04-13T11:23:28.963Z,9.711570
2023-04-13T11:24:27.972Z,9.711587
2023-04-13T11:25:27.955Z,9.711610
2023-04-13T11:26:27.928Z,9.711632
2023-04-13T11:27:28.026Z,9.711621
2023-04-13T11:28:27.889Z,9.711566
2023-04-13T11:29:29.904Z,9.711650
2023-04-13T11:30:31.741Z,9.711619
2023-04-13T11:31:27.979Z,9.711609
2023-04-13T11:32:28.033Z,9.711618
2023-04-13T11:33:28.775Z,9.711569
2023-04-13T11:34:27.906Z,9.711555
2023-04-13T11:35:27.873Z,9.711588
2023-04-13T11:36:27.940Z,9.711548
2023-04-13T11:37:27.864Z,9.711587
2023-04-13T11:38:27.884Z,9.711543
2023-04-13T11:39:29.343Z,9.711555
2023-04-13T11:40:27.785Z,9.711484
2023-04-13T11:41:27.803Z,9.711496
2023-04-13T11:42:27.772Z,9.711570
2023-04-13T11:43:27.812Z,9.711537
2023-04-13T11:44:27.790Z,9.711535
2023-04-13T11:45:27.768Z,9.711556
2023-04-13T11:46:27.829Z,9.711571
2023-04-13T11:47:27.814Z,9.711616
2023-04-13T11:48:27.758Z,9.711614
2023-04-13T11:49:27.712Z,9.711581
2023-04-13T11:50:27.736Z,9.711561
2023-04-13T11:51:27.770Z,9.711654
2023-04-13T11:52:27.704Z,9.711520
2023-04-13T11:53:27.707Z,9.711645
2023-04-13T11:54:27.687Z,9.711711
2023-04-13T11:55:30.141Z,9.711619
2023-04-13T11:56:27.654Z,9.711617
2023-04-13T11:57:27.658Z,9.711533
2023-04-13T11:58:28.386Z,9.711520
2023-04-13T11:59:27.702Z,9.711537
2023-04-13T12:00:27.643Z,9.711611
2023-04-13T12:01:32.191Z,9.711641
2023-04-13T12:02:30.561Z,9.711719
2023-04-13T12:03:42.025Z,9.711729